Terminal Aerodrome Forecast
Issued by NWS Green Bay, WI

Home | Current Version | Previous Version | Text Only | Print | Product List | Glossary Off
Versions: 1 2 3 4 5 6 7 8 9 10 11 12 13 14 15 16 17 18 19 20 21 22 23 24 25 26 27 28 29

000
FTUS43 KGRB 141700
TAFGRB
TAF
KGRB 141737Z 1418/1518 23013G23KT P6SM SCT070
     FM142200 23007KT P6SM VCSH SCT035 BKN060
     FM150200 24004KT P6SM SCT045 BKN120
     FM150700 24005KT 5SM -SHRA BKN090
      TEMPO 1509/1513 3SM -SHRA BR BKN045
     FM151700 27006KT P6SM VCSH BKN120=

USA.gov is the U.S. government's official web portal to all federal, state and local government web resources and services.